• Join FlightAware (Why Join?)
  • Login
  • US Flag 
09:35AM EDT


 

Airport Tracker/Info


-or-


 

Live Flight TrackerFlight Track Log ✈ AWE3417 ✈ 14-Apr-2013 ✈ KDCA - KCMH

Flight Track Log - Related Links

Times and Time Zones

All times are in EDT time to prevent confusion due to time zone crossing. See the AWE3417 flight status page for this flight to view local times or setup timezone preferences in your user account.

Time Position Orientation Groundspeed Altitude Reporting Facility
EDT Latitude Longitude Course Direction KTS MPH feet Rate Location/Type
08:09PM 38.8833 -77.0667 274° West 197 227 1,400  Level Potomac TRACON
08:10PM 38.9333 -77.1167 322° Northwest 248 285 3,800 2,880 Climbing Potomac TRACON
08:11PM 38.9167 -77.3814 270° West  Level FlightAware Approximate
08:11PM 38.9833 -77.1833 314° West 256 295 7,300  Level Potomac TRACON
08:12PM 38.9333 -77.5004 270° West  Level FlightAware Approximate
08:13PM 38.9333 -77.6257 270° West  Level FlightAware Approximate
08:14PM 38.9333 -77.7509 270° West  Level FlightAware Approximate
08:14PM 39.0125 -77.4003 280° West 274 315 12,000  Level Washington Center
08:15PM 38.9389 -77.8760 274° West  Level FlightAware Approximate
08:15PM 39.0039 -77.5361 265° West 328 377 15,100  Level Washington Center
08:16PM 38.9958 -77.6589 265° West 350 403 17,000 1,380 Climbing Washington Center
08:17PM 38.9892 -77.7894 266° West 361 415 17,900 1,440 Climbing Washington Center
08:18PM 38.9786 -77.9175 264° West 371 427 19,900 1,920 Climbing Washington Center
08:19PM 38.9717 -78.0506 266° West 371 427 21,800 1,620 Climbing Washington Center
08:20PM 38.9606 -78.1864 264° West 371 427 23,200 1,440 Climbing Washington Center
08:21PM 38.9614 -78.3281 270° West 382 440 24,800 1,380 Climbing Washington Center
08:22PM 38.9667 -78.4697 273° West 394 453 26,000 600 Climbing Washington Center
08:23PM 38.9714 -78.6114 272° West 401 461 26,000  Level Washington Center
08:24PM 38.9739 -78.7583 271° West 411 473 26,000  Level Washington Center
08:25PM 38.9783 -78.9053 272° West 411 473 26,000 -120 Level Washington Center
08:26PM 38.9825 -79.0497 272° West 406 467 25,800 -840 Descending Washington Center
08:27PM 38.9867 -79.1917 272° West 406 467 24,400 -900 Descending Washington Center
08:28PM 38.9886 -79.3358 271° West 406 467 24,000 -240 Descending Washington Center
08:29PM 38.9922 -79.4831 272° West 406 467 24,000  Level Washington Center
08:30PM 38.9975 -79.6356 273° West 406 467 24,000  Level Washington Center
08:31PM 39.0031 -79.7800 273° West 414 476 24,000  Level Washington Center
08:32PM 39.0047 -79.9111 271° West 414 476 24,000  Level Washington Center
08:33PM 39.0039 -80.1469 270° West 403 464 24,000  Level Indianapolis Center
08:34PM 39.0069 -80.2928 272° West 408 470 24,000  Level Indianapolis Center
08:35PM 39.0086 -80.4381 271° West 408 470 24,000  Level Indianapolis Center
08:36PM 39.0119 -80.5814 272° West 404 465 24,000  Level Indianapolis Center
08:37PM 39.0514 -80.7206 290° West 417 480 24,000  Level Indianapolis Center
08:38PM 39.0975 -80.8564 294° West 416 479 24,000  Level Indianapolis Center
08:39PM 39.1453 -80.9944 294° West 422 486 24,000 -60 Level Indianapolis Center
08:40PM 39.1922 -81.1322 294° West 423 487 23,900 -900 Descending Indianapolis Center
08:41PM 39.2469 -81.2972 293° West 419 482 22,200 -960 Descending Indianapolis Center
08:43PM 39.2908 -81.4322 293° West 412 474 22,000 -840 Descending Indianapolis Center
08:44PM 39.3364 -81.5658 294° West 411 473 20,600 -1,500 Descending Indianapolis Center
08:45PM 39.3789 -81.6981 293° West 401 461 19,000 -1,500 Descending Indianapolis Center
08:46PM 39.4203 -81.8247 293° West 387 445 17,600 -1,500 Descending Indianapolis Center
08:47PM 39.4633 -81.9544 293° West 391 450 16,000 -1,620 Descending Indianapolis Center
08:48PM 39.5044 -82.0817 293° West 385 443 14,400 -1,620 Descending Indianapolis Center
08:49PM 39.5458 -82.2097 293° West 377 434 12,700 -1,680 Descending Indianapolis Center
08:50PM 39.5850 -82.3333 292° West 370 426 11,100 -1,200 Descending Indianapolis Center
08:51PM 39.6381 -82.4694 297° West 361 415 10,300 -540 Descending Indianapolis Center
08:52PM 39.6742 -82.5794 293° West 331 381 10,000 -300 Descending Indianapolis Center
08:53PM 39.7306 -82.6797 306° West 341 392 9,800 -780 Descending Indianapolis Center
08:54PM 39.7842 -82.7589 311° West 295 339 8,500 -1,440 Descending Indianapolis Center
08:54PM 39.8033 -82.7897 309° West 278 320 7,900 -1,800 Descending Indianapolis Center
08:55PM 39.8378 -82.8356 314° West 286 329 6,700 -1,140 Descending Indianapolis Center
08:56PM 39.8897 -82.9106 312° West 280 322 6,000 -840 Descending Indianapolis Center
08:57PM 39.9128 -83.0278 284° West 260 299 4,900 -840 Descending Indianapolis Center
08:58PM 39.9200 -83.0867 279° West 251 289 4,400 -540 Descending Indianapolis Center
08:59PM 39.9628 -83.1317 321° Northwest 245 282 4,000 -420 Descending Indianapolis Center
08:59PM 39.9917 -83.1319 360° North 242 278 3,900 -660 Descending Indianapolis Center
09:00PM 40.0186 -83.1053 37° Northeast 202 232 3,400 -840 Descending Indianapolis Center